sensor_id;sensor_type;location;lat;lon;timestamp;temperature;humidity
47434;SHT31;33184;48.774;8.918;2022-11-15T00:01:44;8.27;84.20
47434;SHT31;33184;48.774;8.918;2022-11-15T00:07:23;8.17;84.43
47434;SHT31;33184;48.774;8.918;2022-11-15T00:13:10;8.09;84.68
47434;SHT31;33184;48.774;8.918;2022-11-15T00:18:50;7.99;84.70
47434;SHT31;33184;48.774;8.918;2022-11-15T00:24:29;7.95;84.75
47434;SHT31;33184;48.774;8.918;2022-11-15T00:30:08;7.76;85.00
47434;SHT31;33184;48.774;8.918;2022-11-15T00:35:48;7.72;85.23
47434;SHT31;33184;48.774;8.918;2022-11-15T00:41:26;7.78;85.28
47434;SHT31;33184;48.774;8.918;2022-11-15T00:47:05;7.86;85.13
47434;SHT31;33184;48.774;8.918;2022-11-15T00:52:44;7.89;84.71
47434;SHT31;33184;48.774;8.918;2022-11-15T00:58:23;7.82;84.57
47434;SHT31;33184;48.774;8.918;2022-11-15T01:04:02;7.62;85.08
47434;SHT31;33184;48.774;8.918;2022-11-15T01:09:41;7.56;85.34
47434;SHT31;33184;48.774;8.918;2022-11-15T01:15:20;7.49;85.26
47434;SHT31;33184;48.774;8.918;2022-11-15T01:20:59;7.46;85.36
47434;SHT31;33184;48.774;8.918;2022-11-15T01:26:38;7.38;85.91
47434;SHT31;33184;48.774;8.918;2022-11-15T01:32:17;7.38;85.56
47434;SHT31;33184;48.774;8.918;2022-11-15T01:37:56;7.36;85.42
47434;SHT31;33184;48.774;8.918;2022-11-15T01:43:36;7.20;85.47
47434;SHT31;33184;48.774;8.918;2022-11-15T01:49:18;7.20;85.79
47434;SHT31;33184;48.774;8.918;2022-11-15T01:55:14;7.18;86.02
47434;SHT31;33184;48.774;8.918;2022-11-15T02:00:54;7.34;86.05
47434;SHT31;33184;48.774;8.918;2022-11-15T02:06:34;7.24;85.98
47434;SHT31;33184;48.774;8.918;2022-11-15T02:12:17;7.14;86.14
47434;SHT31;33184;48.774;8.918;2022-11-15T02:18:07;7.08;86.38
47434;SHT31;33184;48.774;8.918;2022-11-15T02:24:06;7.14;86.54
47434;SHT31;33184;48.774;8.918;2022-11-15T02:30:13;7.17;86.68
47434;SHT31;33184;48.774;8.918;2022-11-15T02:35:58;7.25;86.68
47434;SHT31;33184;48.774;8.918;2022-11-15T02:41:53;7.32;86.51
47434;SHT31;33184;48.774;8.918;2022-11-15T02:47:37;7.32;86.52
47434;SHT31;33184;48.774;8.918;2022-11-15T02:53:24;7.32;86.63
47434;SHT31;33184;48.774;8.918;2022-11-15T03:04:59;7.38;86.55
47434;SHT31;33184;48.774;8.918;2022-11-15T03:22:34;7.25;86.26
47434;SHT31;33184;48.774;8.918;2022-11-15T03:28:18;7.22;86.22
47434;SHT31;33184;48.774;8.918;2022-11-15T03:33:59;7.14;86.17
47434;SHT31;33184;48.774;8.918;2022-11-15T03:39:39;7.17;86.55
47434;SHT31;33184;48.774;8.918;2022-11-15T03:45:22;7.21;86.69
47434;SHT31;33184;48.774;8.918;2022-11-15T03:51:04;7.27;86.82
47434;SHT31;33184;48.774;8.918;2022-11-15T03:56:43;7.20;86.78
47434;SHT31;33184;48.774;8.918;2022-11-15T04:02:22;7.11;87.11
47434;SHT31;33184;48.774;8.918;2022-11-15T04:08:01;7.05;86.84
47434;SHT31;33184;48.774;8.918;2022-11-15T04:13:40;7.05;87.13
47434;SHT31;33184;48.774;8.918;2022-11-15T04:19:19;7.11;87.24
47434;SHT31;33184;48.774;8.918;2022-11-15T04:25:17;7.21;87.22
47434;SHT31;33184;48.774;8.918;2022-11-15T04:30:56;7.21;87.18
47434;SHT31;33184;48.774;8.918;2022-11-15T04:36:34;7.21;86.90
47434;SHT31;33184;48.774;8.918;2022-11-15T04:42:33;7.17;87.19
47434;SHT31;33184;48.774;8.918;2022-11-15T04:48:11;7.10;87.16
47434;SHT31;33184;48.774;8.918;2022-11-15T04:53:50;7.05;87.03
47434;SHT31;33184;48.774;8.918;2022-11-15T04:59:29;7.03;87.00
47434;SHT31;33184;48.774;8.918;2022-11-15T05:05:08;7.00;87.33
47434;SHT31;33184;48.774;8.918;2022-11-15T05:10:47;7.03;87.40
47434;SHT31;33184;48.774;8.918;2022-11-15T05:16:26;7.08;87.52
47434;SHT31;33184;48.774;8.918;2022-11-15T05:22:05;7.08;87.47
47434;SHT31;33184;48.774;8.918;2022-11-15T05:27:44;7.15;87.95
47434;SHT31;33184;48.774;8.918;2022-11-15T05:33:23;7.27;88.52
47434;SHT31;33184;48.774;8.918;2022-11-15T05:39:04;7.35;88.34
47434;SHT31;33184;48.774;8.918;2022-11-15T05:44:47;7.48;87.98
47434;SHT31;33184;48.774;8.918;2022-11-15T05:50:27;7.45;87.79
47434;SHT31;33184;48.774;8.918;2022-11-15T05:56:08;7.39;87.86
47434;SHT31;33184;48.774;8.918;2022-11-15T06:01:48;7.38;87.77
47434;SHT31;33184;48.774;8.918;2022-11-15T06:07:29;7.38;87.67
47434;SHT31;33184;48.774;8.918;2022-11-15T06:13:08;7.36;87.78
47434;SHT31;33184;48.774;8.918;2022-11-15T06:18:47;7.24;87.55
47434;SHT31;33184;48.774;8.918;2022-11-15T06:24:26;7.15;87.97
47434;SHT31;33184;48.774;8.918;2022-11-15T06:30:05;7.30;88.19
47434;SHT31;33184;48.774;8.918;2022-11-15T06:35:44;7.30;87.59
47434;SHT31;33184;48.774;8.918;2022-11-15T06:41:23;7.31;87.69
47434;SHT31;33184;48.774;8.918;2022-11-15T06:47:02;7.38;87.49
47434;SHT31;33184;48.774;8.918;2022-11-15T06:52:41;7.38;87.55
47434;SHT31;33184;48.774;8.918;2022-11-15T06:58:21;7.49;87.65
47434;SHT31;33184;48.774;8.918;2022-11-15T07:04:01;7.66;87.41
47434;SHT31;33184;48.774;8.918;2022-11-15T07:09:39;7.72;87.29
47434;SHT31;33184;48.774;8.918;2022-11-15T07:15:21;7.78;87.19
47434;SHT31;33184;48.774;8.918;2022-11-15T07:21:05;7.82;87.19
47434;SHT31;33184;48.774;8.918;2022-11-15T07:26:45;7.90;87.33
47434;SHT31;33184;48.774;8.918;2022-11-15T07:32:25;8.10;87.20
47434;SHT31;33184;48.774;8.918;2022-11-15T07:38:04;8.31;86.23
47434;SHT31;33184;48.774;8.918;2022-11-15T07:43:43;8.38;86.45
47434;SHT31;33184;48.774;8.918;2022-11-15T07:49:22;8.51;86.16
47434;SHT31;33184;48.774;8.918;2022-11-15T07:55:01;8.61;85.55
47434;SHT31;33184;48.774;8.918;2022-11-15T08:00:40;8.71;85.18
47434;SHT31;33184;48.774;8.918;2022-11-15T08:06:19;8.78;85.37
47434;SHT31;33184;48.774;8.918;2022-11-15T08:11:58;8.91;85.19
47434;SHT31;33184;48.774;8.918;2022-11-15T08:17:37;9.13;84.70
47434;SHT31;33184;48.774;8.918;2022-11-15T08:23:17;9.32;84.29
47434;SHT31;33184;48.774;8.918;2022-11-15T08:28:56;9.48;84.04
47434;SHT31;33184;48.774;8.918;2022-11-15T08:34:35;9.73;83.58
47434;SHT31;33184;48.774;8.918;2022-11-15T08:40:15;9.86;83.08
47434;SHT31;33184;48.774;8.918;2022-11-15T08:45:58;10.04;82.73
47434;SHT31;33184;48.774;8.918;2022-11-15T08:51:37;10.19;81.72
47434;SHT31;33184;48.774;8.918;2022-11-15T08:57:16;10.33;81.81
47434;SHT31;33184;48.774;8.918;2022-11-15T09:02:55;10.41;81.66
47434;SHT31;33184;48.774;8.918;2022-11-15T09:08:35;10.46;81.28
47434;SHT31;33184;48.774;8.918;2022-11-15T09:14:14;10.59;81.11
47434;SHT31;33184;48.774;8.918;2022-11-15T09:19:53;10.71;80.08
47434;SHT31;33184;48.774;8.918;2022-11-15T09:25:32;10.92;78.64
47434;SHT31;33184;48.774;8.918;2022-11-15T09:31:11;11.20;78.50
47434;SHT31;33184;48.774;8.918;2022-11-15T09:36:50;11.24;78.26
47434;SHT31;33184;48.774;8.918;2022-11-15T09:42:55;11.30;78.33
47434;SHT31;33184;48.774;8.918;2022-11-15T09:48:56;11.32;78.73
47434;SHT31;33184;48.774;8.918;2022-11-15T09:54:40;11.35;78.84
47434;SHT31;33184;48.774;8.918;2022-11-15T10:00:06;11.43;78.08
47434;SHT31;33184;48.774;8.918;2022-11-15T10:05:40;11.44;78.26
47434;SHT31;33184;48.774;8.918;2022-11-15T10:11:05;11.58;79.00
47434;SHT31;33184;48.774;8.918;2022-11-15T10:22:18;11.72;79.05
47434;SHT31;33184;48.774;8.918;2022-11-15T10:27:43;11.71;79.02
47434;SHT31;33184;48.774;8.918;2022-11-15T10:49:38;11.85;78.68
47434;SHT31;33184;48.774;8.918;2022-11-15T11:00:36;11.98;78.39
47434;SHT31;33184;48.774;8.918;2022-11-15T11:06:17;12.00;78.97
47434;SHT31;33184;48.774;8.918;2022-11-15T11:11:45;12.09;78.99
47434;SHT31;33184;48.774;8.918;2022-11-15T11:17:16;12.20;78.76
47434;SHT31;33184;48.774;8.918;2022-11-15T11:23:12;12.32;78.58
47434;SHT31;33184;48.774;8.918;2022-11-15T11:45:54;12.73;77.83
47434;SHT31;33184;48.774;8.918;2022-11-15T11:51:23;13.00;76.82
47434;SHT31;33184;48.774;8.918;2022-11-15T11:56:45;13.05;76.79
47434;SHT31;33184;48.774;8.918;2022-11-15T12:02:31;13.07;76.79
47434;SHT31;33184;48.774;8.918;2022-11-15T12:13:39;13.04;76.97
47434;SHT31;33184;48.774;8.918;2022-11-15T12:19:03;13.01;77.29
47434;SHT31;33184;48.774;8.918;2022-11-15T12:29:49;13.05;75.30
47434;SHT31;33184;48.774;8.918;2022-11-15T12:35:42;13.12;76.48
47434;SHT31;33184;48.774;8.918;2022-11-15T12:41:14;13.05;77.38
47434;SHT31;33184;48.774;8.918;2022-11-15T12:57:36;12.90;78.06
47434;SHT31;33184;48.774;8.918;2022-11-15T13:03:32;12.93;77.80
47434;SHT31;33184;48.774;8.918;2022-11-15T13:08:52;12.94;77.96
47434;SHT31;33184;48.774;8.918;2022-11-15T13:15:33;13.00;78.01
47434;SHT31;33184;48.774;8.918;2022-11-15T13:20:30;12.94;77.90
47434;SHT31;33184;48.774;8.918;2022-11-15T13:31:36;12.87;77.40
47434;SHT31;33184;48.774;8.918;2022-11-15T13:36:57;12.87;77.94
47434;SHT31;33184;48.774;8.918;2022-11-15T13:42:20;12.77;77.84
47434;SHT31;33184;48.774;8.918;2022-11-15T13:47:41;12.68;77.44
47434;SHT31;33184;48.774;8.918;2022-11-15T13:53:03;12.64;77.98
47434;SHT31;33184;48.774;8.918;2022-11-15T13:58:24;12.51;78.32
47434;SHT31;33184;48.774;8.918;2022-11-15T14:03:56;12.49;78.30
47434;SHT31;33184;48.774;8.918;2022-11-15T14:09:38;12.47;77.86
47434;SHT31;33184;48.774;8.918;2022-11-15T14:20:39;12.54;78.00
47434;SHT31;33184;48.774;8.918;2022-11-15T14:26:01;12.51;78.14
47434;SHT31;33184;48.774;8.918;2022-11-15T14:31:21;12.51;78.47
47434;SHT31;33184;48.774;8.918;2022-11-15T14:36:42;12.44;78.87
47434;SHT31;33184;48.774;8.918;2022-11-15T14:42:03;12.37;79.10
47434;SHT31;33184;48.774;8.918;2022-11-15T14:47:25;12.39;79.17
47434;SHT31;33184;48.774;8.918;2022-11-15T14:52:47;12.32;79.17
47434;SHT31;33184;48.774;8.918;2022-11-15T14:58:08;12.29;79.39
47434;SHT31;33184;48.774;8.918;2022-11-15T15:03:29;12.29;79.41
47434;SHT31;33184;48.774;8.918;2022-11-15T15:08:50;12.25;79.66
47434;SHT31;33184;48.774;8.918;2022-11-15T15:14:11;12.18;79.93
47434;SHT31;33184;48.774;8.918;2022-11-15T15:19:33;12.12;80.20
47434;SHT31;33184;48.774;8.918;2022-11-15T15:24:54;12.10;80.22
47434;SHT31;33184;48.774;8.918;2022-11-15T15:30:14;12.08;80.37
47434;SHT31;33184;48.774;8.918;2022-11-15T15:35:35;12.02;80.84
47434;SHT31;33184;48.774;8.918;2022-11-15T15:40:56;11.95;81.07
47434;SHT31;33184;48.774;8.918;2022-11-15T15:46:18;11.90;81.15
47434;SHT31;33184;48.774;8.918;2022-11-15T15:51:39;11.90;80.99
47434;SHT31;33184;48.774;8.918;2022-11-15T15:57:00;11.86;80.95
47434;SHT31;33184;48.774;8.918;2022-11-15T16:02:20;11.72;81.23
47434;SHT31;33184;48.774;8.918;2022-11-15T16:07:41;11.78;81.35
47434;SHT31;33184;48.774;8.918;2022-11-15T16:13:03;11.79;81.28
47434;SHT31;33184;48.774;8.918;2022-11-15T16:18:24;11.77;81.44
47434;SHT31;33184;48.774;8.918;2022-11-15T16:23:44;11.69;81.69
47434;SHT31;33184;48.774;8.918;2022-11-15T16:29:05;11.67;82.06
47434;SHT31;33184;48.774;8.918;2022-11-15T16:34:27;11.59;82.17
47434;SHT31;33184;48.774;8.918;2022-11-15T16:39:47;11.57;82.23
47434;SHT31;33184;48.774;8.918;2022-11-15T16:45:11;11.47;82.53
47434;SHT31;33184;48.774;8.918;2022-11-15T16:50:34;11.44;82.84
47434;SHT31;33184;48.774;8.918;2022-11-15T16:56:00;11.47;82.65
47434;SHT31;33184;48.774;8.918;2022-11-15T17:01:23;11.52;82.31
47434;SHT31;33184;48.774;8.918;2022-11-15T17:06:46;11.52;82.03
47434;SHT31;33184;48.774;8.918;2022-11-15T17:12:08;11.52;81.90
47434;SHT31;33184;48.774;8.918;2022-11-15T17:17:29;11.51;81.57
47434;SHT31;33184;48.774;8.918;2022-11-15T17:22:50;11.48;81.66
47434;SHT31;33184;48.774;8.918;2022-11-15T17:28:11;11.41;81.96
47434;SHT31;33184;48.774;8.918;2022-11-15T17:33:32;11.35;82.08
47434;SHT31;33184;48.774;8.918;2022-11-15T17:38:52;11.32;82.34
47434;SHT31;33184;48.774;8.918;2022-11-15T17:44:13;11.24;82.53
47434;SHT31;33184;48.774;8.918;2022-11-15T17:49:34;11.14;82.85
47434;SHT31;33184;48.774;8.918;2022-11-15T17:54:58;11.17;83.06
47434;SHT31;33184;48.774;8.918;2022-11-15T18:00:19;11.17;83.44
47434;SHT31;33184;48.774;8.918;2022-11-15T18:05:40;11.10;83.43
47434;SHT31;33184;48.774;8.918;2022-11-15T18:11:19;11.04;83.53
47434;SHT31;33184;48.774;8.918;2022-11-15T18:16:41;10.99;83.77
47434;SHT31;33184;48.774;8.918;2022-11-15T18:22:01;10.96;84.05
47434;SHT31;33184;48.774;8.918;2022-11-15T18:27:24;10.93;84.14
47434;SHT31;33184;48.774;8.918;2022-11-15T18:32:45;10.99;84.10
47434;SHT31;33184;48.774;8.918;2022-11-15T18:38:05;10.99;83.97
47434;SHT31;33184;48.774;8.918;2022-11-15T18:43:26;11.03;83.92
47434;SHT31;33184;48.774;8.918;2022-11-15T18:48:48;11.08;83.72
47434;SHT31;33184;48.774;8.918;2022-11-15T18:54:13;11.04;83.91
47434;SHT31;33184;48.774;8.918;2022-11-15T18:59:33;10.93;84.15
47434;SHT31;33184;48.774;8.918;2022-11-15T19:04:54;10.93;84.24
47434;SHT31;33184;48.774;8.918;2022-11-15T19:10:15;10.84;84.57
47434;SHT31;33184;48.774;8.918;2022-11-15T19:15:35;10.82;84.83
47434;SHT31;33184;48.774;8.918;2022-11-15T19:21:01;10.76;84.96
47434;SHT31;33184;48.774;8.918;2022-11-15T19:26:22;10.73;85.13
47434;SHT31;33184;48.774;8.918;2022-11-15T19:31:44;10.69;85.18
47434;SHT31;33184;48.774;8.918;2022-11-15T19:37:04;10.71;85.14
47434;SHT31;33184;48.774;8.918;2022-11-15T19:42:25;10.65;85.14
47434;SHT31;33184;48.774;8.918;2022-11-15T19:47:45;10.71;85.18
47434;SHT31;33184;48.774;8.918;2022-11-15T19:53:06;10.72;85.11
47434;SHT31;33184;48.774;8.918;2022-11-15T19:58:27;10.80;84.88
47434;SHT31;33184;48.774;8.918;2022-11-15T20:03:50;10.79;84.86
47434;SHT31;33184;48.774;8.918;2022-11-15T20:09:14;10.73;84.88
47434;SHT31;33184;48.774;8.918;2022-11-15T20:14:35;10.71;85.16
47434;SHT31;33184;48.774;8.918;2022-11-15T20:19:55;10.68;85.29
47434;SHT31;33184;48.774;8.918;2022-11-15T20:25:17;10.66;85.50
47434;SHT31;33184;48.774;8.918;2022-11-15T20:30:38;10.73;85.53
47434;SHT31;33184;48.774;8.918;2022-11-15T20:36:09;10.68;85.73
47434;SHT31;33184;48.774;8.918;2022-11-15T20:41:30;10.72;85.03
47434;SHT31;33184;48.774;8.918;2022-11-15T20:46:51;10.77;84.45
47434;SHT31;33184;48.774;8.918;2022-11-15T20:52:11;10.84;84.70
47434;SHT31;33184;48.774;8.918;2022-11-15T20:57:32;10.82;84.96
47434;SHT31;33184;48.774;8.918;2022-11-15T21:02:52;10.73;85.30
47434;SHT31;33184;48.774;8.918;2022-11-15T21:08:13;10.66;85.48
47434;SHT31;33184;48.774;8.918;2022-11-15T21:13:34;10.58;85.74
47434;SHT31;33184;48.774;8.918;2022-11-15T21:18:55;10.61;85.72
47434;SHT31;33184;48.774;8.918;2022-11-15T21:24:16;10.59;85.58
47434;SHT31;33184;48.774;8.918;2022-11-15T21:29:37;10.46;86.23
47434;SHT31;33184;48.774;8.918;2022-11-15T21:34:58;10.39;86.78
47434;SHT31;33184;48.774;8.918;2022-11-15T21:40:19;10.38;86.78
47434;SHT31;33184;48.774;8.918;2022-11-15T21:45:39;10.26;87.30
47434;SHT31;33184;48.774;8.918;2022-11-15T21:51:04;10.29;87.04
47434;SHT31;33184;48.774;8.918;2022-11-15T21:56:26;10.28;86.77
47434;SHT31;33184;48.774;8.918;2022-11-15T22:01:46;10.26;86.78
47434;SHT31;33184;48.774;8.918;2022-11-15T22:07:26;10.22;87.05
47434;SHT31;33184;48.774;8.918;2022-11-15T22:12:46;10.18;87.11
47434;SHT31;33184;48.774;8.918;2022-11-15T22:18:07;10.12;87.03
47434;SHT31;33184;48.774;8.918;2022-11-15T22:23:29;10.21;86.43
47434;SHT31;33184;48.774;8.918;2022-11-15T22:28:50;10.22;85.96
47434;SHT31;33184;48.774;8.918;2022-11-15T22:34:10;10.24;85.83
47434;SHT31;33184;48.774;8.918;2022-11-15T22:39:31;10.22;86.37
47434;SHT31;33184;48.774;8.918;2022-11-15T22:44:52;10.07;86.95
47434;SHT31;33184;48.774;8.918;2022-11-15T22:50:12;10.01;87.89
47434;SHT31;33184;48.774;8.918;2022-11-15T22:55:33;9.91;88.08
47434;SHT31;33184;48.774;8.918;2022-11-15T23:00:55;9.90;88.51
47434;SHT31;33184;48.774;8.918;2022-11-15T23:06:16;9.84;88.97
47434;SHT31;33184;48.774;8.918;2022-11-15T23:11:37;9.87;89.01
47434;SHT31;33184;48.774;8.918;2022-11-15T23:17:16;9.84;89.03
47434;SHT31;33184;48.774;8.918;2022-11-15T23:22:37;9.84;89.16
47434;SHT31;33184;48.774;8.918;2022-11-15T23:28:06;9.81;89.32
47434;SHT31;33184;48.774;8.918;2022-11-15T23:33:27;9.78;89.35
47434;SHT31;33184;48.774;8.918;2022-11-15T23:39:06;9.75;89.16
47434;SHT31;33184;48.774;8.918;2022-11-15T23:44:27;9.75;89.11
47434;SHT31;33184;48.774;8.918;2022-11-15T23:49:48;9.77;89.18
47434;SHT31;33184;48.774;8.918;2022-11-15T23:55:09;9.74;88.86
